Wichita Mid Continent Airport
KICT : now visible

Aeroporto :











RITROVATECI SU...

 
LOGIN :

Iscrizione | Disclaimer

   EN    FR    IT 

 









Sommario :    VFR   VFR Marginale   IFR   IFR Intensivo   IFR Molto Intensivo
Visibilità : 
Base nubi : 
>= 8 km
>= 3000ft
5 / 8 km
1000 / 3000 ft
1500m / 5 km
500 / 1000 ft
800 / 1500m
200 / 500 ft
< 800m
< 200 ft
Simboli :   Temporali  Nebbia  Neve Forte  Precipitazioni Forti  Vento > 20 kt






- Altitudine del aeroporto : 1333 ft
- Codice IATA : ICT


KICT - Wichita Mid Continent

ULTIMO METAR :
  • 201112Z 36013KT 2SM -SN BR BKN009 OVC024 00/M02 A3018 RMK AO2 TWR VIS 2 1/2 P0001 T00001017

METARs OBSOLETI :
  • 201053Z 36016G27KT 2SM -SN BR BKN009 OVC024 00/M02 A3019 RMK AO2 PK WND 35028/0956 TWR VIS 2 1/2 SLP226 P0002 T00001017
  • 201049Z 36018G27KT 2 1/2SM -SN BR BKN007 BKN012 OVC022 00/M02 A3018 RMK AO2 PK WND 35028/0956 P0002
  • 201011Z 36015G24KT 1 1/2SM -SN BR BKN008 OVC013 00/M01 A3017 RMK AO2 PK WND 35028/0956 SFC VIS 1 3/4 P0001 T00001011
  • 200953Z 35013KT 1 1/4SM -SN BR SCT008 BKN013 OVC055 00/M01 A3017 RMK AO2 PK WND 02026/0907 TWR VIS 1 1/2 SNB07 SLP222 P0002 T00001011
  • 200944Z 35012KT 2SM -SN BR SCT009 BKN013 OVC055 00/M01 A3018 RMK AO2 PK WND 02026/0907 SNB07 P0000 T00001011
  • 200909Z 36018G26KT 6SM -SN BKN020 BKN024 OVC055 01/M03 A3015 RMK AO2 PK WND 02026/0907 SNB07 P0000 T00111028
  • 200853Z 36015G23KT 10SM SCT020 OVC050 01/M03 A3015 RMK AO2 PK WND 02026/0804 SLP211 T00111028 51004

TAF KICT
Valido dal 20 a 10 ore il 21 a 06 ore UTC


201016Z 2010/2106 01017KT 4SM -SN BR SCT008 OVC012
TEMPO 2011/2013 1SM -SN BR OVC008
FM201400 01016G25KT 5SM BR VCSH SCT008 OVC015
FM201600 36014G25KT P6SM SCT013 BKN025
FM201800 36014G23KT P6SM SCT040
FM210100 33008KT P6SM FEW200
FIR KZKC / America del Nord



MetMap, La meteo Aeronautica in un colpo d'occhio ! - Copyright ORBIFLY Dicembre 2007 - Disclaimer

ORBIFLY MET'MAP TEAM :

Programmazione e sviluppo : Alexandra Zaïnal
Concezione : Baudouin d'Aumeries
Aiuto per la programmazione : Marc-Olivier Méhu
Supporto tecnico e logistico : Manuel Goepfert
Aiuto per la traduzione : Arnaldo La Scala

Contatto : metmap@orbifly.com




FONTI E CREDITI :

   NOAA       Earth
Advisory